sensor_id;sensor_type;location;lat;lon;timestamp;temperature;humidity
73570;SHT30;61850;54.980;73.298;2022-12-18T00:00:27;-16.46;90.24
73570;SHT30;61850;54.980;73.298;2022-12-18T00:02:53;-16.46;90.09
73570;SHT30;61850;54.980;73.298;2022-12-18T00:05:19;-16.39;90.41
73570;SHT30;61850;54.980;73.298;2022-12-18T00:07:46;-16.36;90.44
73570;SHT30;61850;54.980;73.298;2022-12-18T00:10:13;-16.36;90.38
73570;SHT30;61850;54.980;73.298;2022-12-18T00:12:47;-16.33;89.94
73570;SHT30;61850;54.980;73.298;2022-12-18T00:15:18;-16.33;89.77
73570;SHT30;61850;54.980;73.298;2022-12-18T00:17:49;-16.38;89.15
73570;SHT30;61850;54.980;73.298;2022-12-18T00:20:20;-16.42;88.90
73570;SHT30;61850;54.980;73.298;2022-12-18T00:22:52;-16.42;89.28
73570;SHT30;61850;54.980;73.298;2022-12-18T00:25:18;-16.46;89.31
73570;SHT30;61850;54.980;73.298;2022-12-18T00:27:44;-16.47;89.13
73570;SHT30;61850;54.980;73.298;2022-12-18T00:30:20;-16.49;89.52
73570;SHT30;61850;54.980;73.298;2022-12-18T00:32:51;-16.47;89.58
73570;SHT30;61850;54.980;73.298;2022-12-18T00:35:21;-16.49;89.76
73570;SHT30;61850;54.980;73.298;2022-12-18T00:37:52;-16.46;89.73
73570;SHT30;61850;54.980;73.298;2022-12-18T00:40:28;-16.45;90.21
73570;SHT30;61850;54.980;73.298;2022-12-18T00:43:04;-16.49;89.75
73570;SHT30;61850;54.980;73.298;2022-12-18T00:45:36;-16.49;89.32
73570;SHT30;61850;54.980;73.298;2022-12-18T00:48:03;-16.47;89.03
73570;SHT30;61850;54.980;73.298;2022-12-18T00:50:29;-16.49;89.23
73570;SHT30;61850;54.980;73.298;2022-12-18T00:53:01;-16.53;89.16
73570;SHT30;61850;54.980;73.298;2022-12-18T00:55:33;-16.55;89.39
73570;SHT30;61850;54.980;73.298;2022-12-18T00:58:01;-16.55;88.94
73570;SHT30;61850;54.980;73.298;2022-12-18T01:00:32;-16.57;88.98
73570;SHT30;61850;54.980;73.298;2022-12-18T01:03:09;-16.55;88.66
73570;SHT30;61850;54.980;73.298;2022-12-18T01:05:41;-16.60;88.36
73570;SHT30;61850;54.980;73.298;2022-12-18T01:08:08;-16.63;88.41
73570;SHT30;61850;54.980;73.298;2022-12-18T01:10:34;-16.64;88.37
73570;SHT30;61850;54.980;73.298;2022-12-18T01:13:00;-16.66;88.54
73570;SHT30;61850;54.980;73.298;2022-12-18T01:15:36;-16.70;88.51
73570;SHT30;61850;54.980;73.298;2022-12-18T01:18:06;-16.70;88.60
73570;SHT30;61850;54.980;73.298;2022-12-18T01:20:39;-16.70;88.18
73570;SHT30;61850;54.980;73.298;2022-12-18T01:23:06;-16.72;88.30
73570;SHT30;61850;54.980;73.298;2022-12-18T01:25:38;-16.73;88.24
73570;SHT30;61850;54.980;73.298;2022-12-18T01:28:07;-16.72;88.46
73570;SHT30;61850;54.980;73.298;2022-12-18T01:30:43;-16.74;88.43
73570;SHT30;61850;54.980;73.298;2022-12-18T01:33:09;-16.73;88.57
73570;SHT30;61850;54.980;73.298;2022-12-18T01:35:46;-16.72;88.31
73570;SHT30;61850;54.980;73.298;2022-12-18T01:38:13;-16.76;88.17
73570;SHT30;61850;54.980;73.298;2022-12-18T01:40:39;-16.76;88.16
73570;SHT30;61850;54.980;73.298;2022-12-18T01:43:08;-16.77;88.40
73570;SHT30;61850;54.980;73.298;2022-12-18T01:45:35;-16.76;88.47
73570;SHT30;61850;54.980;73.298;2022-12-18T01:48:03;-16.77;89.12
73570;SHT30;61850;54.980;73.298;2022-12-18T01:50:38;-16.81;88.65
73570;SHT30;61850;54.980;73.298;2022-12-18T01:53:16;-16.81;88.48
73570;SHT30;61850;54.980;73.298;2022-12-18T01:55:45;-16.84;88.89
73570;SHT30;61850;54.980;73.298;2022-12-18T02:01:17;-16.88;88.53
73570;SHT30;61850;54.980;73.298;2022-12-18T02:03:50;-16.94;88.44
73570;SHT30;61850;54.980;73.298;2022-12-18T02:06:52;-16.94;88.87
73570;SHT30;61850;54.980;73.298;2022-12-18T02:09:14;-16.93;89.20
73570;SHT30;61850;54.980;73.298;2022-12-18T02:14:16;-16.91;88.71
73570;SHT30;61850;54.980;73.298;2022-12-18T02:16:49;-16.87;88.81
73570;SHT30;61850;54.980;73.298;2022-12-18T02:27:27;-16.80;88.69
73570;SHT30;61850;54.980;73.298;2022-12-18T02:29:55;-16.73;89.10
73570;SHT30;61850;54.980;73.298;2022-12-18T02:32:37;-16.74;88.84
73570;SHT30;61850;54.980;73.298;2022-12-18T02:35:20;-16.70;89.06
73570;SHT30;61850;54.980;73.298;2022-12-18T02:37:51;-16.66;88.94
73570;SHT30;61850;54.980;73.298;2022-12-18T02:40:19;-16.67;88.80
73570;SHT30;61850;54.980;73.298;2022-12-18T02:43:10;-16.64;89.09
73570;SHT30;61850;54.980;73.298;2022-12-18T02:45:46;-16.63;89.11
73570;SHT30;61850;54.980;73.298;2022-12-18T02:48:17;-16.63;88.56
73570;SHT30;61850;54.980;73.298;2022-12-18T02:53:24;-16.68;88.13
73570;SHT30;61850;54.980;73.298;2022-12-18T02:56:09;-16.72;88.27
73570;SHT30;61850;54.980;73.298;2022-12-18T03:01:15;-16.72;88.62
73570;SHT30;61850;54.980;73.298;2022-12-18T03:36:02;-16.39;89.31
73570;SHT30;61850;54.980;73.298;2022-12-18T03:38:59;-16.32;89.17
73570;SHT30;61850;54.980;73.298;2022-12-18T03:41:43;-16.30;88.99
73570;SHT30;61850;54.980;73.298;2022-12-18T03:47:05;-16.22;88.40
73570;SHT30;61850;54.980;73.298;2022-12-18T03:52:03;-16.15;88.56
73570;SHT30;61850;54.980;73.298;2022-12-18T03:54:31;-16.16;88.36
73570;SHT30;61850;54.980;73.298;2022-12-18T03:57:11;-16.18;88.29
73570;SHT30;61850;54.980;73.298;2022-12-18T03:59:39;-16.18;87.92
73570;SHT30;61850;54.980;73.298;2022-12-18T04:02:07;-16.19;88.37
73570;SHT30;61850;54.980;73.298;2022-12-18T04:04:37;-16.18;88.09
73570;SHT30;61850;54.980;73.298;2022-12-18T04:07:04;-16.09;88.12
73570;SHT30;61850;54.980;73.298;2022-12-18T04:09:33;-16.08;87.76
73570;SHT30;61850;54.980;73.298;2022-12-18T04:12:00;-16.08;87.40
73570;SHT30;61850;54.980;73.298;2022-12-18T04:14:26;-16.05;87.54
73570;SHT30;61850;54.980;73.298;2022-12-18T04:16:56;-16.01;87.64
73570;SHT30;61850;54.980;73.298;2022-12-18T04:19:33;-16.01;87.97
73570;SHT30;61850;54.980;73.298;2022-12-18T04:22:01;-15.93;87.86
73570;SHT30;61850;54.980;73.298;2022-12-18T04:24:33;-15.84;87.47
73570;SHT30;61850;54.980;73.298;2022-12-18T04:27:06;-15.86;87.18
73570;SHT30;61850;54.980;73.298;2022-12-18T04:29:39;-15.83;87.32
73570;SHT30;61850;54.980;73.298;2022-12-18T04:32:12;-15.76;87.52
73570;SHT30;61850;54.980;73.298;2022-12-18T04:34:41;-15.74;87.56
73570;SHT30;61850;54.980;73.298;2022-12-18T04:37:07;-15.69;87.34
73570;SHT30;61850;54.980;73.298;2022-12-18T04:39:34;-15.67;86.99
73570;SHT30;61850;54.980;73.298;2022-12-18T04:42:17;-15.69;87.19
73570;SHT30;61850;54.980;73.298;2022-12-18T04:44:43;-15.66;86.96
73570;SHT30;61850;54.980;73.298;2022-12-18T04:47:10;-15.62;86.86
73570;SHT30;61850;54.980;73.298;2022-12-18T04:49:37;-15.65;86.52
73570;SHT30;61850;54.980;73.298;2022-12-18T04:52:04;-15.63;87.05
73570;SHT30;61850;54.980;73.298;2022-12-18T04:54:30;-15.52;86.68
73570;SHT30;61850;54.980;73.298;2022-12-18T04:56:57;-15.47;86.00
73570;SHT30;61850;54.980;73.298;2022-12-18T04:59:26;-15.45;85.98
73570;SHT30;61850;54.980;73.298;2022-12-18T05:01:52;-15.46;85.98
73570;SHT30;61850;54.980;73.298;2022-12-18T05:04:30;-15.63;86.45
73570;SHT30;61850;54.980;73.298;2022-12-18T05:07:00;-15.59;86.39
73570;SHT30;61850;54.980;73.298;2022-12-18T05:09:26;-15.55;86.31
73570;SHT30;61850;54.980;73.298;2022-12-18T05:11:52;-15.49;86.05
73570;SHT30;61850;54.980;73.298;2022-12-18T05:14:19;-15.49;85.92
73570;SHT30;61850;54.980;73.298;2022-12-18T05:16:45;-15.43;85.61
73570;SHT30;61850;54.980;73.298;2022-12-18T05:19:17;-15.40;86.01
73570;SHT30;61850;54.980;73.298;2022-12-18T05:21:43;-15.42;85.18
73570;SHT30;61850;54.980;73.298;2022-12-18T05:24:09;-15.43;85.45
73570;SHT30;61850;54.980;73.298;2022-12-18T05:26:36;-15.40;85.30
73570;SHT30;61850;54.980;73.298;2022-12-18T05:29:02;-15.35;85.65
73570;SHT30;61850;54.980;73.298;2022-12-18T05:31:28;-15.29;84.82
73570;SHT30;61850;54.980;73.298;2022-12-18T05:33:55;-15.19;84.77
73570;SHT30;61850;54.980;73.298;2022-12-18T05:36:33;-15.10;84.40
73570;SHT30;61850;54.980;73.298;2022-12-18T05:38:58;-15.03;84.02
73570;SHT30;61850;54.980;73.298;2022-12-18T05:41:26;-15.04;83.58
73570;SHT30;61850;54.980;73.298;2022-12-18T05:44:01;-14.96;84.21
73570;SHT30;61850;54.980;73.298;2022-12-18T05:46:27;-14.96;84.02
73570;SHT30;61850;54.980;73.298;2022-12-18T05:48:53;-14.96;84.15
73570;SHT30;61850;54.980;73.298;2022-12-18T05:51:20;-15.00;83.54
73570;SHT30;61850;54.980;73.298;2022-12-18T05:53:49;-15.07;83.90
73570;SHT30;61850;54.980;73.298;2022-12-18T05:56:16;-15.18;84.13
73570;SHT30;61850;54.980;73.298;2022-12-18T05:58:47;-15.15;84.69
73570;SHT30;61850;54.980;73.298;2022-12-18T06:01:17;-15.12;85.03
73570;SHT30;61850;54.980;73.298;2022-12-18T06:03:48;-15.03;85.28
73570;SHT30;61850;54.980;73.298;2022-12-18T06:08:40;-14.86;84.80
73570;SHT30;61850;54.980;73.298;2022-12-18T06:11:07;-14.75;84.56
73570;SHT30;61850;54.980;73.298;2022-12-18T06:13:37;-14.76;84.50
73570;SHT30;61850;54.980;73.298;2022-12-18T06:16:06;-14.75;84.91
73570;SHT30;61850;54.980;73.298;2022-12-18T06:18:34;-14.69;85.02
73570;SHT30;61850;54.980;73.298;2022-12-18T06:21:00;-14.59;84.94
73570;SHT30;61850;54.980;73.298;2022-12-18T06:23:27;-14.36;84.30
73570;SHT30;61850;54.980;73.298;2022-12-18T06:25:53;-14.20;84.16
73570;SHT30;61850;54.980;73.298;2022-12-18T06:28:19;-13.94;83.99
73570;SHT30;61850;54.980;73.298;2022-12-18T06:30:49;-13.83;82.91
73570;SHT30;61850;54.980;73.298;2022-12-18T06:33:16;-13.77;82.66
73570;SHT30;61850;54.980;73.298;2022-12-18T06:35:42;-13.90;82.90
73570;SHT30;61850;54.980;73.298;2022-12-18T06:38:08;-13.84;83.33
73570;SHT30;61850;54.980;73.298;2022-12-18T06:40:36;-13.81;83.75
73570;SHT30;61850;54.980;73.298;2022-12-18T06:43:02;-13.73;83.91
73570;SHT30;61850;54.980;73.298;2022-12-18T06:45:28;-13.69;83.69
73570;SHT30;61850;54.980;73.298;2022-12-18T06:48:05;-13.76;83.98
73570;SHT30;61850;54.980;73.298;2022-12-18T06:50:31;-13.63;84.17
73570;SHT30;61850;54.980;73.298;2022-12-18T06:53:03;-13.48;83.79
73570;SHT30;61850;54.980;73.298;2022-12-18T06:55:30;-13.38;83.55
73570;SHT30;61850;54.980;73.298;2022-12-18T06:57:56;-13.38;84.07
73570;SHT30;61850;54.980;73.298;2022-12-18T07:00:22;-13.40;83.64
73570;SHT30;61850;54.980;73.298;2022-12-18T07:02:48;-13.35;83.89
73570;SHT30;61850;54.980;73.298;2022-12-18T07:05:15;-13.36;84.52
73570;SHT30;61850;54.980;73.298;2022-12-18T07:07:41;-13.28;84.70
73570;SHT30;61850;54.980;73.298;2022-12-18T07:10:08;-13.17;84.67
73570;SHT30;61850;54.980;73.298;2022-12-18T07:12:34;-13.19;84.34
73570;SHT30;61850;54.980;73.298;2022-12-18T07:15:00;-13.00;84.45
73570;SHT30;61850;54.980;73.298;2022-12-18T07:17:27;-13.07;84.14
73570;SHT30;61850;54.980;73.298;2022-12-18T07:19:53;-12.98;84.66
73570;SHT30;61850;54.980;73.298;2022-12-18T07:22:20;-12.84;84.72
73570;SHT30;61850;54.980;73.298;2022-12-18T07:24:49;-12.79;83.99
73570;SHT30;61850;54.980;73.298;2022-12-18T07:27:26;-12.80;84.09
73570;SHT30;61850;54.980;73.298;2022-12-18T07:29:52;-12.80;84.45
73570;SHT30;61850;54.980;73.298;2022-12-18T07:32:19;-12.76;84.95
73570;SHT30;61850;54.980;73.298;2022-12-18T07:34:45;-12.66;84.59
73570;SHT30;61850;54.980;73.298;2022-12-18T07:37:11;-12.65;84.83
73570;SHT30;61850;54.980;73.298;2022-12-18T07:39:37;-12.62;84.37
73570;SHT30;61850;54.980;73.298;2022-12-18T07:42:04;-12.60;84.74
73570;SHT30;61850;54.980;73.298;2022-12-18T07:44:48;-12.42;86.89
73570;SHT30;61850;54.980;73.298;2022-12-18T07:47:15;-12.42;85.71
73570;SHT30;61850;54.980;73.298;2022-12-18T07:49:43;-12.41;85.96
73570;SHT30;61850;54.980;73.298;2022-12-18T07:52:10;-12.28;86.43
73570;SHT30;61850;54.980;73.298;2022-12-18T07:54:48;-12.28;86.33
73570;SHT30;61850;54.980;73.298;2022-12-18T07:57:17;-12.22;85.75
73570;SHT30;61850;54.980;73.298;2022-12-18T07:59:43;-12.18;85.03
73570;SHT30;61850;54.980;73.298;2022-12-18T08:02:15;-12.10;84.80
73570;SHT30;61850;54.980;73.298;2022-12-18T08:04:43;-12.01;85.26
73570;SHT30;61850;54.980;73.298;2022-12-18T08:07:10;-11.97;84.84
73570;SHT30;61850;54.980;73.298;2022-12-18T08:09:42;-11.91;84.93
73570;SHT30;61850;54.980;73.298;2022-12-18T08:12:18;-11.94;84.18
73570;SHT30;61850;54.980;73.298;2022-12-18T08:14:45;-11.88;84.33
73570;SHT30;61850;54.980;73.298;2022-12-18T08:17:11;-11.90;83.71
73570;SHT30;61850;54.980;73.298;2022-12-18T08:19:37;-11.94;83.66
73570;SHT30;61850;54.980;73.298;2022-12-18T08:22:03;-11.88;83.94
73570;SHT30;61850;54.980;73.298;2022-12-18T08:24:40;-11.83;83.80
73570;SHT30;61850;54.980;73.298;2022-12-18T08:27:06;-11.83;84.00
73570;SHT30;61850;54.980;73.298;2022-12-18T08:29:32;-11.81;84.25
73570;SHT30;61850;54.980;73.298;2022-12-18T08:31:59;-11.81;83.83
73570;SHT30;61850;54.980;73.298;2022-12-18T08:34:25;-11.76;83.59
73570;SHT30;61850;54.980;73.298;2022-12-18T08:36:51;-11.81;83.53
73570;SHT30;61850;54.980;73.298;2022-12-18T08:39:18;-11.80;83.81
73570;SHT30;61850;54.980;73.298;2022-12-18T08:41:54;-11.76;83.68
73570;SHT30;61850;54.980;73.298;2022-12-18T08:44:50;-11.80;83.76
73570;SHT30;61850;54.980;73.298;2022-12-18T08:47:26;-11.71;84.02
73570;SHT30;61850;54.980;73.298;2022-12-18T08:49:52;-11.69;83.90
73570;SHT30;61850;54.980;73.298;2022-12-18T08:52:18;-11.67;83.68
73570;SHT30;61850;54.980;73.298;2022-12-18T08:54:49;-11.70;83.85
73570;SHT30;61850;54.980;73.298;2022-12-18T08:57:16;-11.70;83.72
73570;SHT30;61850;54.980;73.298;2022-12-18T08:59:55;-11.71;84.10
73570;SHT30;61850;54.980;73.298;2022-12-18T09:02:32;-11.69;84.25
73570;SHT30;61850;54.980;73.298;2022-12-18T09:05:09;-11.66;84.06
73570;SHT30;61850;54.980;73.298;2022-12-18T09:07:38;-11.69;84.15
73570;SHT30;61850;54.980;73.298;2022-12-18T09:10:15;-11.67;84.41
73570;SHT30;61850;54.980;73.298;2022-12-18T09:12:51;-11.67;84.27
73570;SHT30;61850;54.980;73.298;2022-12-18T09:15:18;-11.67;84.41
73570;SHT30;61850;54.980;73.298;2022-12-18T09:17:49;-11.66;85.02
73570;SHT30;61850;54.980;73.298;2022-12-18T09:20:20;-11.70;84.54
73570;SHT30;61850;54.980;73.298;2022-12-18T09:22:56;-11.65;84.97
73570;SHT30;61850;54.980;73.298;2022-12-18T09:25:31;-11.73;85.00
73570;SHT30;61850;54.980;73.298;2022-12-18T09:27:59;-11.83;85.63
73570;SHT30;61850;54.980;73.298;2022-12-18T09:30:25;-11.90;86.10
73570;SHT30;61850;54.980;73.298;2022-12-18T09:32:51;-11.90;86.06
73570;SHT30;61850;54.980;73.298;2022-12-18T09:35:17;-11.95;86.38
73570;SHT30;61850;54.980;73.298;2022-12-18T09:37:44;-11.97;86.42
73570;SHT30;61850;54.980;73.298;2022-12-18T09:40:19;-12.00;87.13
73570;SHT30;61850;54.980;73.298;2022-12-18T09:42:51;-11.98;86.80
73570;SHT30;61850;54.980;73.298;2022-12-18T09:45:23;-11.97;86.89
73570;SHT30;61850;54.980;73.298;2022-12-18T09:47:50;-12.02;87.08
73570;SHT30;61850;54.980;73.298;2022-12-18T09:50:23;-12.02;87.09
73570;SHT30;61850;54.980;73.298;2022-12-18T09:52:51;-12.08;87.22
73570;SHT30;61850;54.980;73.298;2022-12-18T09:55:30;-12.08;86.98
73570;SHT30;61850;54.980;73.298;2022-12-18T09:58:00;-12.10;87.09
73570;SHT30;61850;54.980;73.298;2022-12-18T10:00:32;-12.07;86.95
73570;SHT30;61850;54.980;73.298;2022-12-18T10:03:03;-12.07;86.83
73570;SHT30;61850;54.980;73.298;2022-12-18T10:05:55;-12.08;86.97
73570;SHT30;61850;54.980;73.298;2022-12-18T10:08:32;-12.16;87.66
73570;SHT30;61850;54.980;73.298;2022-12-18T10:11:12;-12.22;88.13
73570;SHT30;61850;54.980;73.298;2022-12-18T10:16:14;-12.27;87.84
73570;SHT30;61850;54.980;73.298;2022-12-18T10:21:42;-12.29;87.72
73570;SHT30;61850;54.980;73.298;2022-12-18T10:27:14;-12.48;86.27
73570;SHT30;61850;54.980;73.298;2022-12-18T10:29:43;-12.62;86.00
73570;SHT30;61850;54.980;73.298;2022-12-18T10:32:18;-12.67;86.21
73570;SHT30;61850;54.980;73.298;2022-12-18T10:34:49;-12.76;85.89
73570;SHT30;61850;54.980;73.298;2022-12-18T10:37:27;-12.87;85.90
73570;SHT30;61850;54.980;73.298;2022-12-18T10:42:32;-13.03;86.17
73570;SHT30;61850;54.980;73.298;2022-12-18T10:45:12;-13.07;86.14
73570;SHT30;61850;54.980;73.298;2022-12-18T10:47:43;-13.11;86.21
73570;SHT30;61850;54.980;73.298;2022-12-18T10:50:37;-13.21;86.41
73570;SHT30;61850;54.980;73.298;2022-12-18T10:53:03;-13.22;86.74
73570;SHT30;61850;54.980;73.298;2022-12-18T10:55:34;-13.28;86.71
73570;SHT30;61850;54.980;73.298;2022-12-18T11:03:32;-13.36;87.82
73570;SHT30;61850;54.980;73.298;2022-12-18T11:06:08;-13.38;88.03
73570;SHT30;61850;54.980;73.298;2022-12-18T11:08:36;-13.36;88.16
73570;SHT30;61850;54.980;73.298;2022-12-18T11:11:02;-13.34;87.77
73570;SHT30;61850;54.980;73.298;2022-12-18T11:13:30;-13.35;87.70
73570;SHT30;61850;54.980;73.298;2022-12-18T11:15:57;-13.38;87.69
73570;SHT30;61850;54.980;73.298;2022-12-18T11:21:07;-13.32;87.63
73570;SHT30;61850;54.980;73.298;2022-12-18T11:23:36;-13.24;87.53
73570;SHT30;61850;54.980;73.298;2022-12-18T11:26:04;-13.19;87.57
73570;SHT30;61850;54.980;73.298;2022-12-18T11:28:38;-13.14;87.49
73570;SHT30;61850;54.980;73.298;2022-12-18T11:33:39;-13.07;87.38
73570;SHT30;61850;54.980;73.298;2022-12-18T11:36:08;-13.04;87.16
73570;SHT30;61850;54.980;73.298;2022-12-18T11:38:36;-13.01;87.38
73570;SHT30;61850;54.980;73.298;2022-12-18T11:41:07;-12.96;87.43
73570;SHT30;61850;54.980;73.298;2022-12-18T11:44:01;-12.96;87.43
73570;SHT30;61850;54.980;73.298;2022-12-18T11:46:36;-12.90;87.45
73570;SHT30;61850;54.980;73.298;2022-12-18T11:49:17;-12.83;87.46
73570;SHT30;61850;54.980;73.298;2022-12-18T11:51:53;-12.83;87.40
73570;SHT30;61850;54.980;73.298;2022-12-18T11:54:21;-12.80;87.61
73570;SHT30;61850;54.980;73.298;2022-12-18T11:56:51;-12.80;87.59
73570;SHT30;61850;54.980;73.298;2022-12-18T11:59:50;-12.75;87.35
73570;SHT30;61850;54.980;73.298;2022-12-18T12:10:12;-12.65;87.17
73570;SHT30;61850;54.980;73.298;2022-12-18T12:12:51;-12.62;86.58
73570;SHT30;61850;54.980;73.298;2022-12-18T12:15:32;-12.63;86.63
73570;SHT30;61850;54.980;73.298;2022-12-18T12:18:04;-12.62;86.66
73570;SHT30;61850;54.980;73.298;2022-12-18T12:21:05;-12.59;86.90
73570;SHT30;61850;54.980;73.298;2022-12-18T12:26:10;-12.63;86.84
73570;SHT30;61850;54.980;73.298;2022-12-18T12:39:24;-12.73;88.04
73570;SHT30;61850;54.980;73.298;2022-12-18T12:41:53;-12.77;88.15
73570;SHT30;61850;54.980;73.298;2022-12-18T12:44:45;-12.69;87.81
73570;SHT30;61850;54.980;73.298;2022-12-18T12:47:18;-12.79;87.64
73570;SHT30;61850;54.980;73.298;2022-12-18T12:49:46;-12.73;87.70
73570;SHT30;61850;54.980;73.298;2022-12-18T12:54:42;-12.79;88.12
73570;SHT30;61850;54.980;73.298;2022-12-18T12:57:38;-12.84;88.34
73570;SHT30;61850;54.980;73.298;2022-12-18T13:00:10;-12.76;88.12
73570;SHT30;61850;54.980;73.298;2022-12-18T13:02:59;-12.67;87.85
73570;SHT30;61850;54.980;73.298;2022-12-18T13:05:50;-12.66;87.81
73570;SHT30;61850;54.980;73.298;2022-12-18T13:08:27;-12.70;87.54
73570;SHT30;61850;54.980;73.298;2022-12-18T13:10:53;-12.70;87.44
73570;SHT30;61850;54.980;73.298;2022-12-18T13:13:51;-12.79;87.44
73570;SHT30;61850;54.980;73.298;2022-12-18T13:16:19;-12.76;87.37
73570;SHT30;61850;54.980;73.298;2022-12-18T13:18:56;-12.77;87.18
73570;SHT30;61850;54.980;73.298;2022-12-18T13:24:22;-12.76;87.43
73570;SHT30;61850;54.980;73.298;2022-12-18T13:26:55;-12.76;87.07
73570;SHT30;61850;54.980;73.298;2022-12-18T13:29:42;-12.72;87.03
73570;SHT30;61850;54.980;73.298;2022-12-18T13:32:23;-12.72;86.79
73570;SHT30;61850;54.980;73.298;2022-12-18T13:37:42;-12.88;87.27
73570;SHT30;61850;54.980;73.298;2022-12-18T13:40:58;-12.87;86.98
73570;SHT30;61850;54.980;73.298;2022-12-18T13:43:00;-12.96;86.99
73570;SHT30;61850;54.980;73.298;2022-12-18T13:45:40;-12.93;86.87
73570;SHT30;61850;54.980;73.298;2022-12-18T13:48:23;-12.87;86.61
73570;SHT30;61850;54.980;73.298;2022-12-18T13:51:00;-12.90;86.16
73570;SHT30;61850;54.980;73.298;2022-12-18T13:53:43;-12.97;86.16
73570;SHT30;61850;54.980;73.298;2022-12-18T13:56:21;-13.01;85.98
73570;SHT30;61850;54.980;73.298;2022-12-18T14:01:32;-13.04;85.99
73570;SHT30;61850;54.980;73.298;2022-12-18T14:04:08;-13.08;85.97
73570;SHT30;61850;54.980;73.298;2022-12-18T14:06:34;-13.11;85.95
73570;SHT30;61850;54.980;73.298;2022-12-18T14:09:00;-13.00;86.07
73570;SHT30;61850;54.980;73.298;2022-12-18T14:11:28;-12.98;85.58
73570;SHT30;61850;54.980;73.298;2022-12-18T14:13:54;-13.04;85.65
73570;SHT30;61850;54.980;73.298;2022-12-18T14:16:26;-13.04;85.76
73570;SHT30;61850;54.980;73.298;2022-12-18T14:18:55;-13.01;85.67
73570;SHT30;61850;54.980;73.298;2022-12-18T14:21:27;-13.01;85.65
73570;SHT30;61850;54.980;73.298;2022-12-18T14:24:05;-12.98;85.67
73570;SHT30;61850;54.980;73.298;2022-12-18T14:26:32;-12.94;85.60
73570;SHT30;61850;54.980;73.298;2022-12-18T14:29:01;-12.98;85.49
73570;SHT30;61850;54.980;73.298;2022-12-18T14:31:28;-12.91;85.65
73570;SHT30;61850;54.980;73.298;2022-12-18T14:33:55;-12.90;85.57
73570;SHT30;61850;54.980;73.298;2022-12-18T14:36:22;-12.94;85.45
73570;SHT30;61850;54.980;73.298;2022-12-18T14:38:59;-12.94;85.57
73570;SHT30;61850;54.980;73.298;2022-12-18T14:41:31;-12.93;85.87
73570;SHT30;61850;54.980;73.298;2022-12-18T14:44:04;-12.88;85.74
73570;SHT30;61850;54.980;73.298;2022-12-18T14:46:35;-12.91;85.87
73570;SHT30;61850;54.980;73.298;2022-12-18T14:51:49;-12.88;86.30
73570;SHT30;61850;54.980;73.298;2022-12-18T14:54:23;-12.87;86.54
73570;SHT30;61850;54.980;73.298;2022-12-18T14:56:51;-12.90;86.68
73570;SHT30;61850;54.980;73.298;2022-12-18T14:59:21;-12.83;86.75
73570;SHT30;61850;54.980;73.298;2022-12-18T15:04:43;-12.75;86.49
73570;SHT30;61850;54.980;73.298;2022-12-18T15:07:22;-12.69;86.53
73570;SHT30;61850;54.980;73.298;2022-12-18T15:12:36;-12.65;86.71
73570;SHT30;61850;54.980;73.298;2022-12-18T15:20:48;-12.60;86.65
73570;SHT30;61850;54.980;73.298;2022-12-18T15:26:21;-12.65;86.90
73570;SHT30;61850;54.980;73.298;2022-12-18T15:33:43;-12.53;87.02
73570;SHT30;61850;54.980;73.298;2022-12-18T15:36:13;-12.46;86.97
73570;SHT30;61850;54.980;73.298;2022-12-18T15:38:40;-12.42;86.75
73570;SHT30;61850;54.980;73.298;2022-12-18T15:41:17;-12.39;86.90
73570;SHT30;61850;54.980;73.298;2022-12-18T15:43:51;-12.45;86.86
73570;SHT30;61850;54.980;73.298;2022-12-18T15:46:18;-12.44;87.07
73570;SHT30;61850;54.980;73.298;2022-12-18T15:48:58;-12.38;86.85
73570;SHT30;61850;54.980;73.298;2022-12-18T15:51:31;-12.28;86.69
73570;SHT30;61850;54.980;73.298;2022-12-18T15:53:59;-12.31;86.52
73570;SHT30;61850;54.980;73.298;2022-12-18T15:56:26;-12.28;86.59
73570;SHT30;61850;54.980;73.298;2022-12-18T15:59:15;-12.20;86.71
73570;SHT30;61850;54.980;73.298;2022-12-18T16:01:43;-12.24;86.36
73570;SHT30;61850;54.980;73.298;2022-12-18T16:04:15;-12.25;86.80
73570;SHT30;61850;54.980;73.298;2022-12-18T16:06:49;-12.22;86.91
73570;SHT30;61850;54.980;73.298;2022-12-18T16:09:23;-12.28;86.75
73570;SHT30;61850;54.980;73.298;2022-12-18T16:11:49;-12.21;86.97
73570;SHT30;61850;54.980;73.298;2022-12-18T16:14:19;-12.21;87.03
73570;SHT30;61850;54.980;73.298;2022-12-18T16:16:52;-12.18;87.15
73570;SHT30;61850;54.980;73.298;2022-12-18T16:19:19;-12.17;86.95
73570;SHT30;61850;54.980;73.298;2022-12-18T16:21:50;-12.14;87.22
73570;SHT30;61850;54.980;73.298;2022-12-18T16:24:29;-12.11;87.09
73570;SHT30;61850;54.980;73.298;2022-12-18T16:26:56;-12.18;87.30
73570;SHT30;61850;54.980;73.298;2022-12-18T16:29:23;-12.17;87.51
73570;SHT30;61850;54.980;73.298;2022-12-18T16:31:53;-12.13;87.37
73570;SHT30;61850;54.980;73.298;2022-12-18T16:34:21;-12.04;87.08
73570;SHT30;61850;54.980;73.298;2022-12-18T16:36:58;-12.08;86.74
73570;SHT30;61850;54.980;73.298;2022-12-18T16:39:35;-12.16;86.84
73570;SHT30;61850;54.980;73.298;2022-12-18T16:42:03;-12.06;86.89
73570;SHT30;61850;54.980;73.298;2022-12-18T16:44:29;-12.02;86.78
73570;SHT30;61850;54.980;73.298;2022-12-18T16:47:06;-12.00;86.56
73570;SHT30;61850;54.980;73.298;2022-12-18T16:49:33;-12.04;86.59
73570;SHT30;61850;54.980;73.298;2022-12-18T16:52:04;-12.06;86.66
73570;SHT30;61850;54.980;73.298;2022-12-18T16:54:33;-12.06;86.79
73570;SHT30;61850;54.980;73.298;2022-12-18T16:57:01;-12.07;86.96
73570;SHT30;61850;54.980;73.298;2022-12-18T16:59:28;-12.08;87.24
73570;SHT30;61850;54.980;73.298;2022-12-18T17:01:54;-12.08;87.21
73570;SHT30;61850;54.980;73.298;2022-12-18T17:04:22;-12.02;87.27
73570;SHT30;61850;54.980;73.298;2022-12-18T17:06:58;-12.04;87.35
73570;SHT30;61850;54.980;73.298;2022-12-18T17:09:24;-11.94;87.33
73570;SHT30;61850;54.980;73.298;2022-12-18T17:11:52;-11.93;87.32
73570;SHT30;61850;54.980;73.298;2022-12-18T17:14:19;-11.93;87.24
73570;SHT30;61850;54.980;73.298;2022-12-18T17:16:56;-11.86;87.15
73570;SHT30;61850;54.980;73.298;2022-12-18T17:19:23;-11.84;87.18
73570;SHT30;61850;54.980;73.298;2022-12-18T17:21:55;-11.80;86.90
73570;SHT30;61850;54.980;73.298;2022-12-18T17:24:21;-11.83;87.02
73570;SHT30;61850;54.980;73.298;2022-12-18T17:26:47;-11.80;87.31
73570;SHT30;61850;54.980;73.298;2022-12-18T17:29:23;-11.83;87.41
73570;SHT30;61850;54.980;73.298;2022-12-18T17:31:49;-11.86;87.49
73570;SHT30;61850;54.980;73.298;2022-12-18T17:34:15;-11.83;87.62
73570;SHT30;61850;54.980;73.298;2022-12-18T17:36:41;-11.83;87.62
73570;SHT30;61850;54.980;73.298;2022-12-18T17:39:07;-11.79;87.81
73570;SHT30;61850;54.980;73.298;2022-12-18T17:41:33;-11.91;87.94